North Cascades National Park, WA

11:47 PM PDT on August 30, 2014 (GMT -0700)
Skagit Regional | Change Station
CLOSE
Current Station
Airport
Location: Burlington,
Elevation: 144 ft
Nearby Weather Stations

Elev 144 ft 48.47 °N, 122.42 °W | Updated 12 minutes ago

Overcast
Overcast
57 °F
Feels Like 57 °F
N
5
Wind Variable Wind from SW

Today
High -- | Low -- °F
--% Chance of Precip.
Yesterday
High -- | Low -- °F
Precip. -- in
6:20 AM 7:51 PM
Waxing Crescent, 28% visible
Pressure 29.97 in
Visibility 10.0 miles
Clouds Few 4100 ft
Mostly Cloudy 4900 ft
Overcast 9000 ft
Dew Point 54 °F
Humidity 88%
Rainfall 0.06 in
Snow Depth Not available.
UV 0 out of 12
Pollen .60 out of 12
PM2.5 Good
Flu Activity Not available.
METAR KBVS 310635Z AUTO 22004KT 10SM FEW041 BKN049 OVC090 14/12 A2997 RMK A01 P000

More Conditions Fewer Conditions

Pressure 29.97 in
Visibility 10.0 miles
Clouds Few 4100 ft
Mostly Cloudy 4900 ft
Overcast 9000 ft
Dew Point 54 °F
Humidity 88%
Rainfall 0.06 in
Snow Depth Not available.
UV 0 out of 12
Pollen .60 out of 12
PM2.5 Good
Flu Activity Not available.
METAR KBVS 310635Z AUTO 22004KT 10SM FEW041 BKN049 OVC090 14/12 A2997 RMK A01 P000

More Conditions Fewer Conditions

10-Day Weather Forecast

Almanac

Astronomy

Aug. 30, 2014 Rise Set
Actual Time 6:20 AM PDT 7:51 PM PDT
Civil Twilight 5:47 AM PDT 8:23 PM PDT
Nautical Twilight 5:07 AM PDT 9:03 PM PDT
Astronomical Twilight 4:24 AM PDT 9:46 PM PDT
Moon 11:39 AM PDT (8/30) 10:01 PM PDT (8/30)
Length of Visible Light 14h 36m
Length of Day
13h 30m
Tomorrow will be 3m 25s shorter.
Waxing Crescent, 28% of the Moon is Illuminated
Aug 31
Waxing Crescent
Sep 2
First Quarter
Sep 8
Full
Sep 15
Last Quarter
Sep 24
New

Community

WunderPhotos

Upload Photos

1,748,800 photos uploaded!

Nearby

Air Quality

  Air Quality AQ Index Pollutant
Yesterday Good
PM2.5
Current Good
PM2.5
Saturday Good
OZONE
Saturday Good
PM2.5
Sunday Good
OZONE
Sunday Good
PM2.5
Monday Good
OZONE
Monday Good
PM2.5
Tuesday Good
OZONE
Tuesday Good
PM2.5
Wednesday Good
OZONE
Wednesday Good
PM2.5

Snow Depth

Station Depth Elevation
Park Creek Ridge 0 in 4600 ft
Beaver Pass 0 in 3620 ft
Mf Nooksack 0 in 4980 ft
Rainy Pass 0 in 4780 ft
Lyman Lake 2 in 5900 ft

Earthquake Activity

City Distance Mag. Time & Date
No recent earthquake activity has been reported nearby.
Minimum magnitude displayed is 2.5.

Coastal Water Temperatures

Place Temperature
No Stations Reporting

Nearby Weather Stations